sensor_id;sensor_type;location;lat;lon;timestamp;P1;durP1;ratioP1;P2;durP2;ratioP2
64063;SDS011;50314;50.618;10.642;2023-05-10T00:02:06;1.73;;;1.25;;
64063;SDS011;50314;50.618;10.642;2023-05-10T00:04:32;1.42;;;1.30;;
64063;SDS011;50314;50.618;10.642;2023-05-10T00:06:58;1.30;;;1.20;;
64063;SDS011;50314;50.618;10.642;2023-05-10T00:09:23;1.85;;;1.60;;
64063;SDS011;50314;50.618;10.642;2023-05-10T00:11:49;1.70;;;1.60;;
64063;SDS011;50314;50.618;10.642;2023-05-10T00:14:14;1.35;;;1.25;;
64063;SDS011;50314;50.618;10.642;2023-05-10T00:16:40;1.60;;;1.50;;
64063;SDS011;50314;50.618;10.642;2023-05-10T00:19:05;1.60;;;1.50;;
64063;SDS011;50314;50.618;10.642;2023-05-10T00:21:31;1.98;;;1.40;;
64063;SDS011;50314;50.618;10.642;2023-05-10T00:23:57;1.50;;;1.40;;
64063;SDS011;50314;50.618;10.642;2023-05-10T00:26:22;1.83;;;1.73;;
64063;SDS011;50314;50.618;10.642;2023-05-10T00:28:48;1.70;;;1.60;;
64063;SDS011;50314;50.618;10.642;2023-05-10T00:31:13;1.85;;;1.40;;
64063;SDS011;50314;50.618;10.642;2023-05-10T00:33:39;1.55;;;1.40;;
64063;SDS011;50314;50.618;10.642;2023-05-10T00:36:05;1.50;;;1.40;;
64063;SDS011;50314;50.618;10.642;2023-05-10T00:38:32;1.73;;;1.10;;
64063;SDS011;50314;50.618;10.642;2023-05-10T00:40:58;1.88;;;1.45;;
64063;SDS011;50314;50.618;10.642;2023-05-10T00:43:23;1.60;;;1.50;;
64063;SDS011;50314;50.618;10.642;2023-05-10T00:45:49;2.17;;;1.80;;
64063;SDS011;50314;50.618;10.642;2023-05-10T00:48:15;1.70;;;1.58;;
64063;SDS011;50314;50.618;10.642;2023-05-10T00:50:40;1.55;;;1.45;;
64063;SDS011;50314;50.618;10.642;2023-05-10T00:53:06;1.60;;;1.50;;
64063;SDS011;50314;50.618;10.642;2023-05-10T00:55:33;1.88;;;1.70;;
64063;SDS011;50314;50.618;10.642;2023-05-10T00:57:58;1.75;;;1.65;;
64063;SDS011;50314;50.618;10.642;2023-05-10T01:00:24;1.67;;;1.52;;
64063;SDS011;50314;50.618;10.642;2023-05-10T01:02:50;1.65;;;1.55;;
64063;SDS011;50314;50.618;10.642;2023-05-10T01:05:16;1.63;;;1.52;;
64063;SDS011;50314;50.618;10.642;2023-05-10T01:07:42;1.70;;;1.60;;
64063;SDS011;50314;50.618;10.642;2023-05-10T01:10:07;1.60;;;1.50;;
64063;SDS011;50314;50.618;10.642;2023-05-10T01:12:35;1.77;;;1.63;;
64063;SDS011;50314;50.618;10.642;2023-05-10T01:15:02;1.65;;;1.55;;
64063;SDS011;50314;50.618;10.642;2023-05-10T01:17:28;1.60;;;1.50;;
64063;SDS011;50314;50.618;10.642;2023-05-10T01:19:55;1.77;;;1.67;;
64063;SDS011;50314;50.618;10.642;2023-05-10T01:30:50;2.83;;;1.88;;
64063;SDS011;50314;50.618;10.642;2023-05-10T01:41:39;1.25;;;1.13;;
64063;SDS011;50314;50.618;10.642;2023-05-10T01:47:11;1.65;;;1.35;;
64063;SDS011;50314;50.618;10.642;2023-05-10T01:52:15;1.52;;;1.42;;
64063;SDS011;50314;50.618;10.642;2023-05-10T01:54:53;1.30;;;1.20;;
64063;SDS011;50314;50.618;10.642;2023-05-10T01:57:21;1.70;;;1.48;;
64063;SDS011;50314;50.618;10.642;2023-05-10T01:59:52;1.75;;;1.65;;
64063;SDS011;50314;50.618;10.642;2023-05-10T02:02:20;1.60;;;1.50;;
64063;SDS011;50314;50.618;10.642;2023-05-10T02:04:47;1.55;;;1.45;;
64063;SDS011;50314;50.618;10.642;2023-05-10T02:07:15;1.40;;;1.30;;
64063;SDS011;50314;50.618;10.642;2023-05-10T02:09:43;1.60;;;1.50;;
64063;SDS011;50314;50.618;10.642;2023-05-10T02:12:12;1.75;;;1.60;;
64063;SDS011;50314;50.618;10.642;2023-05-10T02:14:39;2.17;;;1.27;;
64063;SDS011;50314;50.618;10.642;2023-05-10T02:17:06;1.45;;;1.35;;
64063;SDS011;50314;50.618;10.642;2023-05-10T02:19:33;1.60;;;1.50;;
64063;SDS011;50314;50.618;10.642;2023-05-10T02:22:01;2.00;;;1.85;;
64063;SDS011;50314;50.618;10.642;2023-05-10T02:24:28;1.23;;;1.13;;
64063;SDS011;50314;50.618;10.642;2023-05-10T02:26:54;1.70;;;1.50;;
64063;SDS011;50314;50.618;10.642;2023-05-10T02:29:22;1.67;;;1.55;;
64063;SDS011;50314;50.618;10.642;2023-05-10T02:31:51;2.08;;;1.80;;
64063;SDS011;50314;50.618;10.642;2023-05-10T02:34:19;1.58;;;1.48;;
64063;SDS011;50314;50.618;10.642;2023-05-10T02:36:46;1.48;;;1.38;;
64063;SDS011;50314;50.618;10.642;2023-05-10T02:39:12;1.20;;;1.10;;
64063;SDS011;50314;50.618;10.642;2023-05-10T02:41:40;1.75;;;1.65;;
64063;SDS011;50314;50.618;10.642;2023-05-10T02:44:07;1.73;;;1.63;;
64063;SDS011;50314;50.618;10.642;2023-05-10T02:53:54;1.70;;;1.60;;
64063;SDS011;50314;50.618;10.642;2023-05-10T02:56:28;1.40;;;1.30;;
64063;SDS011;50314;50.618;10.642;2023-05-10T02:58:57;1.90;;;1.73;;
64063;SDS011;50314;50.618;10.642;2023-05-10T03:01:22;1.90;;;1.80;;
64063;SDS011;50314;50.618;10.642;2023-05-10T03:03:48;2.35;;;1.92;;
64063;SDS011;50314;50.618;10.642;2023-05-10T03:06:14;1.75;;;1.50;;
64063;SDS011;50314;50.618;10.642;2023-05-10T03:08:41;1.63;;;1.48;;
64063;SDS011;50314;50.618;10.642;2023-05-10T03:14:09;1.45;;;1.27;;
64063;SDS011;50314;50.618;10.642;2023-05-10T03:16:56;1.52;;;1.42;;
64063;SDS011;50314;50.618;10.642;2023-05-10T03:22:26;1.33;;;1.23;;
64063;SDS011;50314;50.618;10.642;2023-05-10T03:24:56;1.60;;;1.50;;
64063;SDS011;50314;50.618;10.642;2023-05-10T03:27:25;1.83;;;1.73;;
64063;SDS011;50314;50.618;10.642;2023-05-10T03:29:52;1.58;;;1.48;;
64063;SDS011;50314;50.618;10.642;2023-05-10T03:32:19;1.55;;;1.45;;
64063;SDS011;50314;50.618;10.642;2023-05-10T03:34:45;1.55;;;1.40;;
64063;SDS011;50314;50.618;10.642;2023-05-10T03:37:10;2.13;;;1.40;;
64063;SDS011;50314;50.618;10.642;2023-05-10T03:39:36;1.45;;;1.30;;
64063;SDS011;50314;50.618;10.642;2023-05-10T03:42:01;1.60;;;1.50;;
64063;SDS011;50314;50.618;10.642;2023-05-10T03:44:27;1.67;;;1.25;;
64063;SDS011;50314;50.618;10.642;2023-05-10T03:46:53;1.67;;;1.13;;
64063;SDS011;50314;50.618;10.642;2023-05-10T03:49:18;1.40;;;1.30;;
64063;SDS011;50314;50.618;10.642;2023-05-10T03:51:43;1.50;;;1.20;;
64063;SDS011;50314;50.618;10.642;2023-05-10T03:54:09;1.52;;;1.42;;
64063;SDS011;50314;50.618;10.642;2023-05-10T03:56:34;1.92;;;1.45;;
64063;SDS011;50314;50.618;10.642;2023-05-10T03:59:00;1.50;;;1.40;;
64063;SDS011;50314;50.618;10.642;2023-05-10T04:01:25;1.73;;;1.60;;
64063;SDS011;50314;50.618;10.642;2023-05-10T04:03:51;2.00;;;1.80;;
64063;SDS011;50314;50.618;10.642;2023-05-10T04:06:16;1.50;;;1.27;;
64063;SDS011;50314;50.618;10.642;2023-05-10T04:08:42;1.80;;;1.67;;
64063;SDS011;50314;50.618;10.642;2023-05-10T04:11:08;1.40;;;1.30;;
64063;SDS011;50314;50.618;10.642;2023-05-10T04:13:34;2.15;;;1.60;;
64063;SDS011;50314;50.618;10.642;2023-05-10T04:16:00;1.40;;;1.30;;
64063;SDS011;50314;50.618;10.642;2023-05-10T04:18:26;2.10;;;1.80;;
64063;SDS011;50314;50.618;10.642;2023-05-10T04:20:51;1.63;;;1.48;;
64063;SDS011;50314;50.618;10.642;2023-05-10T04:23:17;1.80;;;1.30;;
64063;SDS011;50314;50.618;10.642;2023-05-10T04:25:42;2.65;;;1.80;;
64063;SDS011;50314;50.618;10.642;2023-05-10T04:28:08;2.33;;;1.70;;
64063;SDS011;50314;50.618;10.642;2023-05-10T04:30:33;1.58;;;1.40;;
64063;SDS011;50314;50.618;10.642;2023-05-10T04:32:59;1.65;;;1.50;;
64063;SDS011;50314;50.618;10.642;2023-05-10T04:35:26;2.15;;;1.95;;
64063;SDS011;50314;50.618;10.642;2023-05-10T04:37:53;1.52;;;1.42;;
64063;SDS011;50314;50.618;10.642;2023-05-10T04:40:18;1.50;;;1.40;;
64063;SDS011;50314;50.618;10.642;2023-05-10T04:42:44;1.88;;;1.77;;
64063;SDS011;50314;50.618;10.642;2023-05-10T04:45:10;1.80;;;1.40;;
64063;SDS011;50314;50.618;10.642;2023-05-10T04:47:35;1.95;;;1.45;;
64063;SDS011;50314;50.618;10.642;2023-05-10T04:50:02;3.17;;;2.33;;
64063;SDS011;50314;50.618;10.642;2023-05-10T04:52:28;3.53;;;1.77;;
64063;SDS011;50314;50.618;10.642;2023-05-10T04:54:54;1.83;;;1.40;;
64063;SDS011;50314;50.618;10.642;2023-05-10T04:57:19;1.95;;;1.40;;
64063;SDS011;50314;50.618;10.642;2023-05-10T04:59:45;2.17;;;1.60;;
64063;SDS011;50314;50.618;10.642;2023-05-10T05:02:10;1.90;;;1.70;;
64063;SDS011;50314;50.618;10.642;2023-05-10T05:04:36;1.83;;;1.50;;
64063;SDS011;50314;50.618;10.642;2023-05-10T05:07:01;2.38;;;1.60;;
64063;SDS011;50314;50.618;10.642;2023-05-10T05:09:27;2.30;;;1.73;;
64063;SDS011;50314;50.618;10.642;2023-05-10T05:11:52;2.78;;;1.80;;
64063;SDS011;50314;50.618;10.642;2023-05-10T05:14:18;3.78;;;1.90;;
64063;SDS011;50314;50.618;10.642;2023-05-10T05:16:45;2.40;;;1.80;;
64063;SDS011;50314;50.618;10.642;2023-05-10T05:19:11;4.03;;;1.60;;
64063;SDS011;50314;50.618;10.642;2023-05-10T05:21:36;3.75;;;1.67;;
64063;SDS011;50314;50.618;10.642;2023-05-10T05:24:02;1.95;;;1.73;;
64063;SDS011;50314;50.618;10.642;2023-05-10T05:26:28;1.60;;;1.50;;
64063;SDS011;50314;50.618;10.642;2023-05-10T05:28:53;1.90;;;1.70;;
64063;SDS011;50314;50.618;10.642;2023-05-10T05:31:19;2.08;;;1.88;;
64063;SDS011;50314;50.618;10.642;2023-05-10T05:33:45;2.28;;;1.90;;
64063;SDS011;50314;50.618;10.642;2023-05-10T05:36:11;2.40;;;1.75;;
64063;SDS011;50314;50.618;10.642;2023-05-10T05:38:36;2.10;;;1.70;;
64063;SDS011;50314;50.618;10.642;2023-05-10T05:41:02;2.13;;;1.92;;
64063;SDS011;50314;50.618;10.642;2023-05-10T05:43:28;2.50;;;2.00;;
64063;SDS011;50314;50.618;10.642;2023-05-10T05:45:54;2.40;;;1.70;;
64063;SDS011;50314;50.618;10.642;2023-05-10T05:48:19;1.92;;;1.38;;
64063;SDS011;50314;50.618;10.642;2023-05-10T05:50:45;2.47;;;2.05;;
64063;SDS011;50314;50.618;10.642;2023-05-10T05:53:11;1.85;;;1.65;;
64063;SDS011;50314;50.618;10.642;2023-05-10T05:55:36;1.95;;;1.65;;
64063;SDS011;50314;50.618;10.642;2023-05-10T05:58:02;2.80;;;1.60;;
64063;SDS011;50314;50.618;10.642;2023-05-10T06:00:28;3.30;;;1.60;;
64063;SDS011;50314;50.618;10.642;2023-05-10T06:02:53;1.80;;;1.65;;
64063;SDS011;50314;50.618;10.642;2023-05-10T06:05:20;1.38;;;1.27;;
64063;SDS011;50314;50.618;10.642;2023-05-10T06:07:46;1.98;;;1.77;;
64063;SDS011;50314;50.618;10.642;2023-05-10T06:10:11;2.00;;;1.60;;
64063;SDS011;50314;50.618;10.642;2023-05-10T06:12:36;1.70;;;1.60;;
64063;SDS011;50314;50.618;10.642;2023-05-10T06:15:02;4.07;;;1.75;;
64063;SDS011;50314;50.618;10.642;2023-05-10T06:17:28;1.92;;;1.33;;
64063;SDS011;50314;50.618;10.642;2023-05-10T06:19:54;2.90;;;1.88;;
64063;SDS011;50314;50.618;10.642;2023-05-10T06:22:20;2.13;;;1.92;;
64063;SDS011;50314;50.618;10.642;2023-05-10T06:24:47;1.58;;;1.30;;
64063;SDS011;50314;50.618;10.642;2023-05-10T06:27:13;1.83;;;1.52;;
64063;SDS011;50314;50.618;10.642;2023-05-10T06:29:41;1.70;;;1.60;;
64063;SDS011;50314;50.618;10.642;2023-05-10T06:32:07;1.90;;;1.52;;
64063;SDS011;50314;50.618;10.642;2023-05-10T06:34:32;3.63;;;1.70;;
64063;SDS011;50314;50.618;10.642;2023-05-10T06:36:58;4.15;;;1.60;;
64063;SDS011;50314;50.618;10.642;2023-05-10T06:39:23;1.60;;;1.25;;
64063;SDS011;50314;50.618;10.642;2023-05-10T06:41:49;1.48;;;1.30;;
64063;SDS011;50314;50.618;10.642;2023-05-10T06:44:14;1.63;;;1.42;;
64063;SDS011;50314;50.618;10.642;2023-05-10T06:46:40;1.35;;;1.20;;
64063;SDS011;50314;50.618;10.642;2023-05-10T06:49:06;3.08;;;1.80;;
64063;SDS011;50314;50.618;10.642;2023-05-10T06:51:32;1.42;;;1.30;;
64063;SDS011;50314;50.618;10.642;2023-05-10T06:53:57;1.10;;;1.00;;
64063;SDS011;50314;50.618;10.642;2023-05-10T06:56:23;1.13;;;1.02;;
64063;SDS011;50314;50.618;10.642;2023-05-10T06:58:48;0.90;;;0.88;;
64063;SDS011;50314;50.618;10.642;2023-05-10T07:01:14;0.80;;;0.80;;
64063;SDS011;50314;50.618;10.642;2023-05-10T07:03:39;0.90;;;0.90;;
64063;SDS011;50314;50.618;10.642;2023-05-10T07:06:05;0.88;;;0.88;;
64063;SDS011;50314;50.618;10.642;2023-05-10T07:08:32;0.77;;;0.77;;
64063;SDS011;50314;50.618;10.642;2023-05-10T07:11:02;1.10;;;0.98;;
64063;SDS011;50314;50.618;10.642;2023-05-10T07:13:29;1.40;;;0.80;;
64063;SDS011;50314;50.618;10.642;2023-05-10T07:15:58;1.63;;;0.70;;
64063;SDS011;50314;50.618;10.642;2023-05-10T07:18:24;1.92;;;1.17;;
64063;SDS011;50314;50.618;10.642;2023-05-10T07:20:50;0.70;;;0.70;;
64063;SDS011;50314;50.618;10.642;2023-05-10T07:23:16;0.50;;;0.50;;
64063;SDS011;50314;50.618;10.642;2023-05-10T07:25:44;0.50;;;0.50;;
64063;SDS011;50314;50.618;10.642;2023-05-10T07:28:11;0.80;;;0.80;;
64063;SDS011;50314;50.618;10.642;2023-05-10T07:30:36;0.70;;;0.70;;
64063;SDS011;50314;50.618;10.642;2023-05-10T07:33:02;0.43;;;0.43;;
64063;SDS011;50314;50.618;10.642;2023-05-10T07:35:27;0.60;;;0.60;;
64063;SDS011;50314;50.618;10.642;2023-05-10T07:37:53;0.60;;;0.60;;
64063;SDS011;50314;50.618;10.642;2023-05-10T07:40:18;1.33;;;0.82;;
64063;SDS011;50314;50.618;10.642;2023-05-10T07:42:44;0.45;;;0.45;;
64063;SDS011;50314;50.618;10.642;2023-05-10T07:45:09;0.73;;;0.60;;
64063;SDS011;50314;50.618;10.642;2023-05-10T07:47:35;0.60;;;0.60;;
64063;SDS011;50314;50.618;10.642;2023-05-10T07:50:03;0.60;;;0.60;;
64063;SDS011;50314;50.618;10.642;2023-05-10T07:52:29;0.80;;;0.80;;
64063;SDS011;50314;50.618;10.642;2023-05-10T07:54:55;0.75;;;0.75;;
64063;SDS011;50314;50.618;10.642;2023-05-10T07:57:21;0.50;;;0.50;;
64063;SDS011;50314;50.618;10.642;2023-05-10T07:59:47;0.65;;;0.65;;
64063;SDS011;50314;50.618;10.642;2023-05-10T08:02:12;0.50;;;0.50;;
64063;SDS011;50314;50.618;10.642;2023-05-10T08:04:38;0.57;;;0.57;;
64063;SDS011;50314;50.618;10.642;2023-05-10T08:07:03;0.85;;;0.65;;
64063;SDS011;50314;50.618;10.642;2023-05-10T08:09:29;0.80;;;0.40;;
64063;SDS011;50314;50.618;10.642;2023-05-10T08:11:54;1.38;;;1.00;;
64063;SDS011;50314;50.618;10.642;2023-05-10T08:14:20;2.15;;;0.90;;
64063;SDS011;50314;50.618;10.642;2023-05-10T08:16:45;0.80;;;0.80;;
64063;SDS011;50314;50.618;10.642;2023-05-10T08:19:12;1.15;;;0.90;;
64063;SDS011;50314;50.618;10.642;2023-05-10T08:21:37;1.90;;;1.00;;
64063;SDS011;50314;50.618;10.642;2023-05-10T08:24:03;1.10;;;0.90;;
64063;SDS011;50314;50.618;10.642;2023-05-10T08:26:29;1.42;;;1.15;;
64063;SDS011;50314;50.618;10.642;2023-05-10T08:28:55;1.20;;;0.88;;
64063;SDS011;50314;50.618;10.642;2023-05-10T08:31:21;0.90;;;0.90;;
64063;SDS011;50314;50.618;10.642;2023-05-10T08:33:46;2.05;;;0.80;;
64063;SDS011;50314;50.618;10.642;2023-05-10T08:36:11;1.55;;;0.98;;
64063;SDS011;50314;50.618;10.642;2023-05-10T08:38:39;0.82;;;0.82;;
64063;SDS011;50314;50.618;10.642;2023-05-10T08:41:04;0.80;;;0.80;;
64063;SDS011;50314;50.618;10.642;2023-05-10T08:43:30;1.42;;;0.80;;
64063;SDS011;50314;50.618;10.642;2023-05-10T08:45:56;0.90;;;0.90;;
64063;SDS011;50314;50.618;10.642;2023-05-10T08:48:25;1.33;;;0.77;;
64063;SDS011;50314;50.618;10.642;2023-05-10T08:50:53;0.80;;;0.80;;
64063;SDS011;50314;50.618;10.642;2023-05-10T08:53:20;0.75;;;0.75;;
64063;SDS011;50314;50.618;10.642;2023-05-10T08:55:46;0.90;;;0.90;;
64063;SDS011;50314;50.618;10.642;2023-05-10T08:58:15;0.80;;;0.80;;
64063;SDS011;50314;50.618;10.642;2023-05-10T09:00:40;0.65;;;0.60;;
64063;SDS011;50314;50.618;10.642;2023-05-10T09:03:06;1.27;;;0.70;;
64063;SDS011;50314;50.618;10.642;2023-05-10T09:05:32;0.73;;;0.50;;
64063;SDS011;50314;50.618;10.642;2023-05-10T09:07:57;2.78;;;0.63;;
64063;SDS011;50314;50.618;10.642;2023-05-10T09:10:25;1.52;;;0.65;;
64063;SDS011;50314;50.618;10.642;2023-05-10T09:15:18;0.75;;;0.60;;
64063;SDS011;50314;50.618;10.642;2023-05-10T09:17:45;0.77;;;0.77;;
64063;SDS011;50314;50.618;10.642;2023-05-10T09:20:11;0.63;;;0.63;;
64063;SDS011;50314;50.618;10.642;2023-05-10T09:22:36;0.80;;;0.70;;
64063;SDS011;50314;50.618;10.642;2023-05-10T09:27:35;2.40;;;0.80;;
64063;SDS011;50314;50.618;10.642;2023-05-10T09:30:01;1.02;;;0.60;;
64063;SDS011;50314;50.618;10.642;2023-05-10T09:32:37;0.70;;;0.70;;
64063;SDS011;50314;50.618;10.642;2023-05-10T09:35:08;2.45;;;0.93;;
64063;SDS011;50314;50.618;10.642;2023-05-10T09:37:41;0.75;;;0.70;;
64063;SDS011;50314;50.618;10.642;2023-05-10T09:40:10;0.40;;;0.40;;
64063;SDS011;50314;50.618;10.642;2023-05-10T09:42:38;0.65;;;0.57;;
64063;SDS011;50314;50.618;10.642;2023-05-10T09:45:04;0.35;;;0.32;;
64063;SDS011;50314;50.618;10.642;2023-05-10T09:47:34;0.40;;;0.40;;
64063;SDS011;50314;50.618;10.642;2023-05-10T09:50:00;1.88;;;0.65;;
64063;SDS011;50314;50.618;10.642;2023-05-10T09:52:29;1.00;;;0.90;;
64063;SDS011;50314;50.618;10.642;2023-05-10T09:55:13;0.50;;;0.50;;
64063;SDS011;50314;50.618;10.642;2023-05-10T09:57:39;0.70;;;0.70;;
64063;SDS011;50314;50.618;10.642;2023-05-10T10:00:05;0.63;;;0.63;;
64063;SDS011;50314;50.618;10.642;2023-05-10T10:02:32;0.90;;;0.80;;
64063;SDS011;50314;50.618;10.642;2023-05-10T10:04:58;0.80;;;0.80;;
64063;SDS011;50314;50.618;10.642;2023-05-10T10:07:26;0.95;;;0.60;;
64063;SDS011;50314;50.618;10.642;2023-05-10T10:09:53;0.60;;;0.60;;
64063;SDS011;50314;50.618;10.642;2023-05-10T10:12:18;0.88;;;0.88;;
64063;SDS011;50314;50.618;10.642;2023-05-10T10:14:45;0.60;;;0.60;;
64063;SDS011;50314;50.618;10.642;2023-05-10T10:17:13;0.70;;;0.70;;
64063;SDS011;50314;50.618;10.642;2023-05-10T10:19:39;0.70;;;0.70;;
64063;SDS011;50314;50.618;10.642;2023-05-10T10:22:04;0.95;;;0.68;;
64063;SDS011;50314;50.618;10.642;2023-05-10T10:24:31;0.77;;;0.68;;
64063;SDS011;50314;50.618;10.642;2023-05-10T10:26:57;2.38;;;1.58;;
64063;SDS011;50314;50.618;10.642;2023-05-10T10:29:38;11.10;;;6.80;;
64063;SDS011;50314;50.618;10.642;2023-05-10T10:32:27;11.35;;;7.80;;
64063;SDS011;50314;50.618;10.642;2023-05-10T10:34:59;8.70;;;5.45;;
64063;SDS011;50314;50.618;10.642;2023-05-10T10:37:40;8.85;;;5.00;;
64063;SDS011;50314;50.618;10.642;2023-05-10T10:40:28;6.68;;;4.60;;
64063;SDS011;50314;50.618;10.642;2023-05-10T10:42:56;5.13;;;3.22;;
64063;SDS011;50314;50.618;10.642;2023-05-10T10:45:23;7.57;;;4.63;;
64063;SDS011;50314;50.618;10.642;2023-05-10T10:47:53;5.95;;;4.18;;
64063;SDS011;50314;50.618;10.642;2023-05-10T10:50:43;7.82;;;5.53;;
64063;SDS011;50314;50.618;10.642;2023-05-10T10:53:11;12.07;;;7.72;;
64063;SDS011;50314;50.618;10.642;2023-05-10T10:55:45;15.23;;;10.30;;
64063;SDS011;50314;50.618;10.642;2023-05-10T10:58:12;14.32;;;11.50;;
64063;SDS011;50314;50.618;10.642;2023-05-10T11:01:08;16.70;;;13.23;;
64063;SDS011;50314;50.618;10.642;2023-05-10T11:03:37;17.20;;;11.95;;
64063;SDS011;50314;50.618;10.642;2023-05-10T11:06:03;16.27;;;11.02;;
64063;SDS011;50314;50.618;10.642;2023-05-10T11:08:29;14.32;;;10.65;;
64063;SDS011;50314;50.618;10.642;2023-05-10T11:16:21;9.63;;;5.90;;
64063;SDS011;50314;50.618;10.642;2023-05-10T11:21:36;9.20;;;5.93;;
64063;SDS011;50314;50.618;10.642;2023-05-10T11:24:14;7.38;;;5.38;;
64063;SDS011;50314;50.618;10.642;2023-05-10T11:26:41;7.80;;;5.72;;
64063;SDS011;50314;50.618;10.642;2023-05-10T11:29:07;6.63;;;4.90;;
64063;SDS011;50314;50.618;10.642;2023-05-10T11:31:33;7.13;;;4.90;;
64063;SDS011;50314;50.618;10.642;2023-05-10T11:33:59;6.63;;;4.70;;
64063;SDS011;50314;50.618;10.642;2023-05-10T11:36:32;7.40;;;4.70;;
64063;SDS011;50314;50.618;10.642;2023-05-10T11:38:59;7.20;;;4.22;;
64063;SDS011;50314;50.618;10.642;2023-05-10T11:41:26;8.35;;;4.63;;
64063;SDS011;50314;50.618;10.642;2023-05-10T11:43:53;4.93;;;3.03;;
64063;SDS011;50314;50.618;10.642;2023-05-10T11:48:49;2.20;;;1.50;;
64063;SDS011;50314;50.618;10.642;2023-05-10T11:51:19;1.23;;;1.10;;
64063;SDS011;50314;50.618;10.642;2023-05-10T11:53:46;1.05;;;0.95;;
64063;SDS011;50314;50.618;10.642;2023-05-10T11:56:11;1.15;;;0.77;;
64063;SDS011;50314;50.618;10.642;2023-05-10T11:58:37;1.50;;;1.00;;
64063;SDS011;50314;50.618;10.642;2023-05-10T12:01:05;0.90;;;0.90;;
64063;SDS011;50314;50.618;10.642;2023-05-10T12:03:31;3.72;;;1.48;;
64063;SDS011;50314;50.618;10.642;2023-05-10T12:05:58;3.33;;;2.20;;
64063;SDS011;50314;50.618;10.642;2023-05-10T12:08:25;3.88;;;2.63;;
64063;SDS011;50314;50.618;10.642;2023-05-10T12:10:52;4.57;;;3.28;;
64063;SDS011;50314;50.618;10.642;2023-05-10T12:15:45;5.60;;;3.30;;
64063;SDS011;50314;50.618;10.642;2023-05-10T12:18:11;4.95;;;3.47;;
64063;SDS011;50314;50.618;10.642;2023-05-10T12:20:38;5.95;;;3.92;;
64063;SDS011;50314;50.618;10.642;2023-05-10T12:23:04;6.45;;;4.30;;
64063;SDS011;50314;50.618;10.642;2023-05-10T12:25:31;6.93;;;4.40;;
64063;SDS011;50314;50.618;10.642;2023-05-10T12:27:59;5.50;;;3.53;;
64063;SDS011;50314;50.618;10.642;2023-05-10T12:30:31;5.30;;;3.08;;
64063;SDS011;50314;50.618;10.642;2023-05-10T12:33:01;5.32;;;3.35;;
64063;SDS011;50314;50.618;10.642;2023-05-10T12:35:32;7.63;;;4.88;;
64063;SDS011;50314;50.618;10.642;2023-05-10T12:40:57;11.18;;;7.30;;
64063;SDS011;50314;50.618;10.642;2023-05-10T12:43:24;9.75;;;6.70;;
64063;SDS011;50314;50.618;10.642;2023-05-10T12:45:49;7.72;;;4.43;;
64063;SDS011;50314;50.618;10.642;2023-05-10T12:48:15;7.30;;;4.78;;
64063;SDS011;50314;50.618;10.642;2023-05-10T12:50:40;6.80;;;4.22;;
64063;SDS011;50314;50.618;10.642;2023-05-10T12:53:06;6.63;;;4.65;;
64063;SDS011;50314;50.618;10.642;2023-05-10T12:55:31;6.38;;;4.22;;
64063;SDS011;50314;50.618;10.642;2023-05-10T12:57:57;6.47;;;3.95;;
64063;SDS011;50314;50.618;10.642;2023-05-10T13:00:22;5.32;;;3.63;;
64063;SDS011;50314;50.618;10.642;2023-05-10T13:02:48;5.30;;;3.40;;
64063;SDS011;50314;50.618;10.642;2023-05-10T13:05:13;4.90;;;3.15;;
64063;SDS011;50314;50.618;10.642;2023-05-10T13:07:39;5.95;;;3.10;;
64063;SDS011;50314;50.618;10.642;2023-05-10T13:10:05;4.20;;;2.80;;
64063;SDS011;50314;50.618;10.642;2023-05-10T13:12:31;5.38;;;3.22;;
64063;SDS011;50314;50.618;10.642;2023-05-10T13:14:57;7.45;;;3.15;;
64063;SDS011;50314;50.618;10.642;2023-05-10T13:17:22;3.65;;;2.53;;
64063;SDS011;50314;50.618;10.642;2023-05-10T13:19:48;4.20;;;2.80;;
64063;SDS011;50314;50.618;10.642;2023-05-10T13:22:13;4.20;;;2.85;;
64063;SDS011;50314;50.618;10.642;2023-05-10T13:24:38;4.55;;;3.17;;
64063;SDS011;50314;50.618;10.642;2023-05-10T13:27:04;6.15;;;2.83;;
64063;SDS011;50314;50.618;10.642;2023-05-10T13:29:30;5.20;;;2.50;;
64063;SDS011;50314;50.618;10.642;2023-05-10T13:31:55;3.58;;;2.30;;
64063;SDS011;50314;50.618;10.642;2023-05-10T13:34:21;4.20;;;2.70;;
64063;SDS011;50314;50.618;10.642;2023-05-10T13:36:47;4.75;;;2.78;;
64063;SDS011;50314;50.618;10.642;2023-05-10T13:39:12;3.45;;;2.17;;
64063;SDS011;50314;50.618;10.642;2023-05-10T13:41:38;2.55;;;2.10;;
64063;SDS011;50314;50.618;10.642;2023-05-10T13:44:04;3.72;;;2.63;;
64063;SDS011;50314;50.618;10.642;2023-05-10T13:46:29;3.58;;;2.20;;
64063;SDS011;50314;50.618;10.642;2023-05-10T13:48:55;4.57;;;2.67;;
64063;SDS011;50314;50.618;10.642;2023-05-10T13:51:21;4.30;;;2.30;;
64063;SDS011;50314;50.618;10.642;2023-05-10T13:53:47;4.57;;;2.50;;
64063;SDS011;50314;50.618;10.642;2023-05-10T13:56:13;2.50;;;1.80;;
64063;SDS011;50314;50.618;10.642;2023-05-10T13:58:39;2.97;;;1.88;;
64063;SDS011;50314;50.618;10.642;2023-05-10T14:01:04;2.58;;;1.70;;
64063;SDS011;50314;50.618;10.642;2023-05-10T14:03:30;3.17;;;1.63;;
64063;SDS011;50314;50.618;10.642;2023-05-10T14:05:56;2.80;;;1.85;;
64063;SDS011;50314;50.618;10.642;2023-05-10T14:08:21;2.55;;;1.83;;
64063;SDS011;50314;50.618;10.642;2023-05-10T14:10:47;2.13;;;1.67;;
64063;SDS011;50314;50.618;10.642;2023-05-10T14:13:13;2.45;;;1.73;;
64063;SDS011;50314;50.618;10.642;2023-05-10T14:15:40;2.90;;;2.00;;
64063;SDS011;50314;50.618;10.642;2023-05-10T14:18:06;3.42;;;2.20;;
64063;SDS011;50314;50.618;10.642;2023-05-10T14:20:31;3.63;;;2.28;;
64063;SDS011;50314;50.618;10.642;2023-05-10T14:27:49;1.80;;;1.40;;
64063;SDS011;50314;50.618;10.642;2023-05-10T14:30:15;3.60;;;2.33;;
64063;SDS011;50314;50.618;10.642;2023-05-10T14:32:40;3.00;;;2.03;;
64063;SDS011;50314;50.618;10.642;2023-05-10T14:35:06;3.70;;;2.30;;
64063;SDS011;50314;50.618;10.642;2023-05-10T14:37:32;3.83;;;2.30;;
64063;SDS011;50314;50.618;10.642;2023-05-10T14:39:58;4.15;;;2.80;;
64063;SDS011;50314;50.618;10.642;2023-05-10T14:42:23;5.10;;;3.13;;
64063;SDS011;50314;50.618;10.642;2023-05-10T14:44:49;3.63;;;2.67;;
64063;SDS011;50314;50.618;10.642;2023-05-10T14:47:14;4.57;;;3.30;;
64063;SDS011;50314;50.618;10.642;2023-05-10T14:49:40;5.20;;;3.83;;
64063;SDS011;50314;50.618;10.642;2023-05-10T14:52:05;4.90;;;3.33;;
64063;SDS011;50314;50.618;10.642;2023-05-10T14:54:31;4.20;;;2.60;;
64063;SDS011;50314;50.618;10.642;2023-05-10T14:56:58;4.50;;;2.88;;
64063;SDS011;50314;50.618;10.642;2023-05-10T14:59:24;4.95;;;3.38;;
64063;SDS011;50314;50.618;10.642;2023-05-10T15:01:49;4.93;;;3.47;;
64063;SDS011;50314;50.618;10.642;2023-05-10T15:04:15;4.85;;;3.70;;
64063;SDS011;50314;50.618;10.642;2023-05-10T15:06:41;5.28;;;4.05;;
64063;SDS011;50314;50.618;10.642;2023-05-10T15:09:06;5.07;;;3.50;;
64063;SDS011;50314;50.618;10.642;2023-05-10T15:11:32;5.25;;;3.70;;
64063;SDS011;50314;50.618;10.642;2023-05-10T15:13:58;4.40;;;3.20;;
64063;SDS011;50314;50.618;10.642;2023-05-10T15:16:23;4.00;;;3.28;;
64063;SDS011;50314;50.618;10.642;2023-05-10T15:18:49;4.97;;;3.60;;
64063;SDS011;50314;50.618;10.642;2023-05-10T15:21:14;4.90;;;3.35;;
64063;SDS011;50314;50.618;10.642;2023-05-10T15:23:40;4.30;;;3.03;;
64063;SDS011;50314;50.618;10.642;2023-05-10T15:26:05;2.45;;;2.13;;
64063;SDS011;50314;50.618;10.642;2023-05-10T15:28:31;2.42;;;1.80;;
64063;SDS011;50314;50.618;10.642;2023-05-10T15:30:56;2.00;;;1.90;;
64063;SDS011;50314;50.618;10.642;2023-05-10T15:33:22;1.52;;;1.42;;